createdAt,value
2023-03-22T00:00:31.858Z,26.30
2023-03-22T00:03:02.916Z,28.90
2023-03-22T00:05:33.888Z,28.20
2023-03-22T00:08:07.130Z,26.20
2023-03-22T00:10:39.690Z,26.10
2023-03-22T00:13:12.818Z,26.60
2023-03-22T00:15:48.857Z,26.80
2023-03-22T00:18:20.356Z,26.20
2023-03-22T00:20:52.658Z,27.30
2023-03-22T00:23:24.489Z,25.70
2023-03-22T00:25:56.407Z,25.10
2023-03-22T00:28:27.543Z,25.30
2023-03-22T00:31:00.115Z,25.40
2023-03-22T00:33:32.256Z,25.90
2023-03-22T00:36:06.226Z,25.20
2023-03-22T00:38:43.817Z,24.10
2023-03-22T00:41:17.444Z,25.80
2023-03-22T00:43:50.392Z,24.20
2023-03-22T00:46:22.630Z,24.40
2023-03-22T00:48:53.840Z,22.90
2023-03-22T00:51:25.976Z,24.00
2023-03-22T00:53:56.878Z,24.90
2023-03-22T00:56:28.922Z,26.40
2023-03-22T00:59:04.671Z,22.80
2023-03-22T01:01:35.652Z,24.00
2023-03-22T01:04:07.286Z,22.60
2023-03-22T01:06:38.702Z,27.00
2023-03-22T01:09:15.177Z,25.50
2023-03-22T01:11:46.751Z,25.30
2023-03-22T01:14:17.686Z,26.10
2023-03-22T01:16:49.316Z,23.00
2023-03-22T01:19:20.842Z,24.40
2023-03-22T01:21:52.156Z,23.20
2023-03-22T01:24:23.314Z,22.40
2023-03-22T01:26:54.397Z,23.20
2023-03-22T01:29:26.300Z,22.40
2023-03-22T01:31:57.283Z,23.40
2023-03-22T01:34:28.413Z,22.70
2023-03-22T01:36:59.662Z,23.10
2023-03-22T01:39:32.159Z,21.90
2023-03-22T01:42:06.565Z,22.30
2023-03-22T01:44:40.078Z,21.50
2023-03-22T01:47:12.667Z,22.60
2023-03-22T01:49:44.407Z,22.80
2023-03-22T01:52:17.197Z,22.00
2023-03-22T01:55:12.791Z,21.20
2023-03-22T01:57:52.198Z,22.80
2023-03-22T02:00:29.240Z,23.30
2023-03-22T02:03:19.153Z,21.40
2023-03-22T02:08:21.218Z,20.80
2023-03-22T02:11:18.061Z,20.70
2023-03-22T02:14:18.548Z,22.20
2023-03-22T02:17:04.201Z,22.70
2023-03-22T02:25:44.229Z,20.80
2023-03-22T02:28:23.291Z,21.00
2023-03-22T02:31:19.928Z,22.30
2023-03-22T02:34:34.455Z,21.90
2023-03-22T02:37:32.906Z,21.90
2023-03-22T02:40:08.850Z,20.10
2023-03-22T02:42:52.681Z,23.70
2023-03-22T02:45:31.070Z,22.10
2023-03-22T02:48:11.055Z,23.40
2023-03-22T02:50:46.623Z,23.40
2023-03-22T02:53:22.429Z,21.60
2023-03-22T02:55:57.061Z,21.40
2023-03-22T02:58:31.179Z,19.00
2023-03-22T03:01:07.043Z,23.60
2023-03-22T03:03:40.869Z,23.00
2023-03-22T03:06:19.370Z,22.10
2023-03-22T03:08:52.024Z,21.30
2023-03-22T03:11:22.987Z,22.40
2023-03-22T03:13:53.974Z,22.30
2023-03-22T03:16:29.473Z,22.00
2023-03-22T03:19:07.999Z,23.20
2023-03-22T03:21:46.593Z,21.60
2023-03-22T03:24:28.505Z,22.40
2023-03-22T03:27:06.064Z,22.70
2023-03-22T03:29:46.941Z,22.60
2023-03-22T03:32:25.720Z,21.20
2023-03-22T03:35:01.065Z,22.60
2023-03-22T03:37:36.973Z,23.20
2023-03-22T03:40:14.453Z,22.30
2023-03-22T03:42:50.770Z,20.90
2023-03-22T03:45:23.294Z,21.60
2023-03-22T03:47:58.541Z,22.00
2023-03-22T03:50:29.941Z,22.20
2023-03-22T03:53:01.651Z,22.10
2023-03-22T03:55:33.751Z,21.10
2023-03-22T03:58:04.761Z,23.90
2023-03-22T04:00:35.690Z,19.50
2023-03-22T04:03:32.572Z,20.10
2023-03-22T04:06:23.966Z,19.50
2023-03-22T04:08:58.654Z,19.70
2023-03-22T04:11:32.651Z,26.80
2023-03-22T04:14:05.464Z,24.50
2023-03-22T04:16:37.445Z,19.10
2023-03-22T04:19:08.999Z,22.80
2023-03-22T04:21:40.886Z,22.30
2023-03-22T04:24:13.198Z,21.60
2023-03-22T04:26:45.635Z,21.30
2023-03-22T04:29:32.372Z,19.10
2023-03-22T04:32:31.536Z,19.80
2023-03-22T04:35:02.634Z,20.10
2023-03-22T04:37:33.893Z,19.30
2023-03-22T04:40:20.892Z,19.00
2023-03-22T04:43:04.225Z,24.50
2023-03-22T04:45:49.006Z,21.80
2023-03-22T04:48:24.522Z,20.00
2023-03-22T04:50:55.689Z,19.90
2023-03-22T04:53:28.431Z,20.30
2023-03-22T04:58:42.481Z,19.10
2023-03-22T05:01:16.077Z,20.10
2023-03-22T05:03:48.762Z,22.50
2023-03-22T05:06:24.341Z,22.60
2023-03-22T05:09:03.388Z,23.50
2023-03-22T05:11:34.484Z,22.20
2023-03-22T05:14:31.956Z,21.00
2023-03-22T05:17:05.435Z,21.20
2023-03-22T05:19:41.890Z,19.30
2023-03-22T05:22:16.218Z,18.50
2023-03-22T05:24:53.083Z,20.00
2023-03-22T05:27:34.742Z,18.40
2023-03-22T05:30:27.444Z,18.70
2023-03-22T05:33:09.655Z,18.30
2023-03-22T05:35:54.182Z,19.10
2023-03-22T05:38:29.073Z,19.60
2023-03-22T05:41:02.933Z,18.60
2023-03-22T05:43:35.024Z,18.80
2023-03-22T05:46:10.837Z,21.50
2023-03-22T05:49:05.070Z,19.40
2023-03-22T05:51:41.616Z,17.80
2023-03-22T05:54:15.250Z,15.90
2023-03-22T05:56:55.252Z,14.20
2023-03-22T06:01:56.262Z,16.80
2023-03-22T06:04:29.745Z,17.30
2023-03-22T06:07:15.117Z,16.70
2023-03-22T06:09:50.233Z,15.80
2023-03-22T06:12:29.617Z,15.30
2023-03-22T06:15:08.230Z,14.60
2023-03-22T06:17:39.309Z,15.20
2023-03-22T06:20:14.644Z,14.60
2023-03-22T06:22:53.835Z,14.00
2023-03-22T06:25:24.880Z,14.40
2023-03-22T06:27:55.852Z,13.40
2023-03-22T06:30:27.754Z,13.50
2023-03-22T06:33:14.051Z,12.60
2023-03-22T06:35:47.381Z,12.50
2023-03-22T06:38:23.390Z,13.10
2023-03-22T06:40:54.476Z,13.30
2023-03-22T06:43:25.556Z,11.80
2023-03-22T06:46:00.282Z,12.10
2023-03-22T06:48:36.288Z,11.80
2023-03-22T06:51:14.384Z,12.20
2023-03-22T06:53:46.656Z,13.20
2023-03-22T06:56:17.669Z,13.60
2023-03-22T06:58:58.166Z,12.40
2023-03-22T07:01:29.305Z,12.40
2023-03-22T07:04:01.876Z,13.00
2023-03-22T07:06:34.167Z,11.20
2023-03-22T07:09:10.465Z,11.20
2023-03-22T07:11:42.166Z,11.60
2023-03-22T07:14:13.254Z,10.90
2023-03-22T07:16:59.626Z,12.00
2023-03-22T07:19:32.698Z,12.30
2023-03-22T07:22:06.646Z,12.30
2023-03-22T07:24:47.303Z,10.20
2023-03-22T07:27:26.369Z,11.80
2023-03-22T07:29:57.764Z,12.60
2023-03-22T07:32:28.953Z,12.50
2023-03-22T07:35:08.662Z,11.10
2023-03-22T07:37:42.166Z,12.30
2023-03-22T07:40:21.631Z,12.20
2023-03-22T07:42:55.926Z,17.80
2023-03-22T07:45:47.362Z,12.30
2023-03-22T07:48:39.196Z,12.00
2023-03-22T07:51:32.800Z,12.10
2023-03-22T07:54:05.736Z,13.10
2023-03-22T07:56:39.667Z,13.70
2023-03-22T07:59:11.791Z,13.10
2023-03-22T08:01:43.411Z,13.60
2023-03-22T08:04:23.943Z,14.10
2023-03-22T08:07:10.331Z,12.90
2023-03-22T08:09:42.892Z,14.00
2023-03-22T08:12:15.091Z,13.40
2023-03-22T08:14:50.612Z,13.30
2023-03-22T08:17:26.647Z,12.10
2023-03-22T08:19:58.116Z,13.60
2023-03-22T08:22:39.137Z,13.50
2023-03-22T08:25:29.771Z,13.00
2023-03-22T08:28:12.480Z,14.60
2023-03-22T08:30:44.498Z,13.00
2023-03-22T08:33:17.465Z,12.70
2023-03-22T08:35:49.500Z,13.10
2023-03-22T08:38:21.153Z,13.40
2023-03-22T08:40:55.010Z,13.70
2023-03-22T08:43:28.018Z,12.20
2023-03-22T08:45:59.631Z,12.80
2023-03-22T08:48:30.966Z,12.50
2023-03-22T08:51:16.749Z,13.90
2023-03-22T08:53:58.937Z,14.00
2023-03-22T08:56:48.448Z,11.00
2023-03-22T08:59:46.472Z,14.30
2023-03-22T09:02:29.188Z,13.90
2023-03-22T09:05:00.691Z,12.00
2023-03-22T09:07:31.640Z,15.50
2023-03-22T09:10:25.529Z,14.60
2023-03-22T09:12:57.273Z,13.50
2023-03-22T09:15:28.645Z,14.10
2023-03-22T09:18:11.695Z,13.40
2023-03-22T09:20:43.283Z,14.10
2023-03-22T09:23:16.286Z,14.30
2023-03-22T09:25:48.301Z,12.80
2023-03-22T09:28:20.953Z,13.00
2023-03-22T09:30:52.115Z,13.70
2023-03-22T09:33:24.275Z,12.10
2023-03-22T09:35:58.209Z,12.90
2023-03-22T09:38:33.919Z,12.90
2023-03-22T09:41:09.498Z,13.00
2023-03-22T09:43:44.559Z,13.10
2023-03-22T09:46:20.796Z,14.40
2023-03-22T09:48:53.038Z,14.20
2023-03-22T09:51:39.029Z,13.30
2023-03-22T09:54:21.516Z,12.40
2023-03-22T09:56:57.810Z,11.40
2023-03-22T09:59:34.762Z,12.40
2023-03-22T10:02:28.131Z,11.90
2023-03-22T10:05:13.566Z,12.30
2023-03-22T10:08:02.808Z,12.00
2023-03-22T10:10:33.974Z,11.10
2023-03-22T10:13:14.848Z,11.10
2023-03-22T10:15:48.443Z,11.80
2023-03-22T10:18:23.775Z,11.80
2023-03-22T10:21:01.070Z,12.20
2023-03-22T10:23:37.177Z,13.60
2023-03-22T10:26:10.526Z,11.50
2023-03-22T10:28:44.569Z,13.00
2023-03-22T10:31:18.330Z,11.90
2023-03-22T10:33:57.336Z,12.00
2023-03-22T10:36:34.941Z,11.00
2023-03-22T10:39:14.520Z,12.10
2023-03-22T10:41:46.613Z,13.20
2023-03-22T10:44:20.682Z,12.10
2023-03-22T10:46:53.477Z,12.00
2023-03-22T10:49:31.839Z,12.40
2023-03-22T10:52:10.629Z,12.30
2023-03-22T10:54:41.587Z,14.70
2023-03-22T10:57:12.493Z,13.90
2023-03-22T10:59:48.749Z,13.10
2023-03-22T11:02:23.681Z,13.80
2023-03-22T11:04:57.524Z,12.60
2023-03-22T11:07:36.163Z,12.00
2023-03-22T11:10:24.678Z,12.00
2023-03-22T11:13:11.838Z,12.20
2023-03-22T11:15:52.084Z,13.60
2023-03-22T11:18:24.039Z,14.30
2023-03-22T11:21:00.922Z,12.40
2023-03-22T11:23:35.989Z,12.00
2023-03-22T11:26:12.359Z,12.60
2023-03-22T11:28:48.671Z,11.10
2023-03-22T11:31:21.024Z,10.80
2023-03-22T11:34:00.305Z,12.60
2023-03-22T11:36:31.958Z,11.60
2023-03-22T11:39:07.344Z,11.40
2023-03-22T11:41:40.785Z,10.60
2023-03-22T11:44:15.955Z,9.30
2023-03-22T11:49:27.156Z,9.00
2023-03-22T11:52:08.615Z,11.40
2023-03-22T11:54:43.497Z,11.40
2023-03-22T11:57:19.831Z,11.90
2023-03-22T11:59:56.378Z,12.10
2023-03-22T12:02:31.362Z,12.30
2023-03-22T12:05:09.476Z,11.20
2023-03-22T12:07:42.982Z,13.10
2023-03-22T12:10:22.612Z,10.90
2023-03-22T12:12:59.444Z,11.60
2023-03-22T12:15:35.097Z,12.00
2023-03-22T12:18:13.695Z,12.60
2023-03-22T12:20:50.712Z,11.20
2023-03-22T12:23:24.210Z,10.80
2023-03-22T12:26:01.178Z,10.10
2023-03-22T12:28:38.538Z,11.50
2023-03-22T12:31:16.997Z,11.70
2023-03-22T12:33:51.083Z,11.20
2023-03-22T12:36:30.381Z,11.60
2023-03-22T12:39:03.807Z,11.60
2023-03-22T12:41:40.343Z,11.00
2023-03-22T12:44:19.118Z,10.50
2023-03-22T12:46:55.004Z,11.00
2023-03-22T12:49:44.446Z,10.30
2023-03-22T12:52:23.254Z,12.30
2023-03-22T12:54:59.863Z,10.70
2023-03-22T12:57:32.400Z,10.20
2023-03-22T13:00:16.397Z,9.60
2023-03-22T13:02:56.783Z,11.30
2023-03-22T13:05:30.944Z,10.90
2023-03-22T13:08:05.432Z,10.80
2023-03-22T13:11:02.473Z,10.10
2023-03-22T13:13:49.723Z,9.50
2023-03-22T13:16:43.305Z,9.70
2023-03-22T13:19:35.226Z,9.30
2023-03-22T13:22:29.699Z,10.10
2023-03-22T13:25:29.156Z,9.50
2023-03-22T13:28:03.604Z,10.40
2023-03-22T13:30:37.866Z,10.00
2023-03-22T13:33:22.206Z,9.90
2023-03-22T13:35:57.911Z,9.80
2023-03-22T13:41:08.098Z,9.90
2023-03-22T13:43:50.503Z,9.30
2023-03-22T13:46:51.080Z,10.30
2023-03-22T13:49:48.201Z,10.40
2023-03-22T13:52:35.467Z,10.00
2023-03-22T13:55:18.086Z,9.90
2023-03-22T13:57:59.043Z,9.30
2023-03-22T14:00:49.645Z,9.80
2023-03-22T14:03:39.290Z,10.20
2023-03-22T14:06:16.003Z,9.80
2023-03-22T14:08:52.028Z,10.30
2023-03-22T14:11:32.301Z,9.20
2023-03-22T14:14:09.910Z,9.10
2023-03-22T14:16:47.827Z,9.70
2023-03-22T14:19:25.466Z,10.30
